sensor_id;sensor_type;location;lat;lon;timestamp;temperature;humidity
3850;DHT22;1940;51.052;13.678;2023-03-15T00:01:35;3.20;78.80
3850;DHT22;1940;51.052;13.678;2023-03-15T00:04:01;3.20;78.80
3850;DHT22;1940;51.052;13.678;2023-03-15T00:06:26;3.20;78.70
3850;DHT22;1940;51.052;13.678;2023-03-15T00:08:52;3.10;79.10
3850;DHT22;1940;51.052;13.678;2023-03-15T00:11:18;3.10;79.20
3850;DHT22;1940;51.052;13.678;2023-03-15T00:13:44;3.10;79.30
3850;DHT22;1940;51.052;13.678;2023-03-15T00:16:11;3.10;79.20
3850;DHT22;1940;51.052;13.678;2023-03-15T00:18:43;3.10;79.20
3850;DHT22;1940;51.052;13.678;2023-03-15T00:21:09;3.10;79.40
3850;DHT22;1940;51.052;13.678;2023-03-15T00:23:35;3.10;79.60
3850;DHT22;1940;51.052;13.678;2023-03-15T00:26:00;3.10;79.50
3850;DHT22;1940;51.052;13.678;2023-03-15T00:28:26;3.00;79.50
3850;DHT22;1940;51.052;13.678;2023-03-15T00:31:02;3.00;79.50
3850;DHT22;1940;51.052;13.678;2023-03-15T00:33:28;3.10;79.50
3850;DHT22;1940;51.052;13.678;2023-03-15T00:35:53;3.00;79.50
3850;DHT22;1940;51.052;13.678;2023-03-15T00:38:19;3.00;79.90
3850;DHT22;1940;51.052;13.678;2023-03-15T00:40:46;3.00;80.60
3850;DHT22;1940;51.052;13.678;2023-03-15T00:43:11;2.90;80.60
3850;DHT22;1940;51.052;13.678;2023-03-15T00:45:42;2.80;80.80
3850;DHT22;1940;51.052;13.678;2023-03-15T00:48:09;2.80;80.60
3850;DHT22;1940;51.052;13.678;2023-03-15T00:50:35;2.80;80.50
3850;DHT22;1940;51.052;13.678;2023-03-15T00:53:00;2.70;80.80
3850;DHT22;1940;51.052;13.678;2023-03-15T00:55:26;2.80;80.80
3850;DHT22;1940;51.052;13.678;2023-03-15T00:57:51;2.70;81.00
3850;DHT22;1940;51.052;13.678;2023-03-15T01:00:21;2.80;81.10
3850;DHT22;1940;51.052;13.678;2023-03-15T01:02:49;2.80;81.10
3850;DHT22;1940;51.052;13.678;2023-03-15T01:05:15;2.70;81.20
3850;DHT22;1940;51.052;13.678;2023-03-15T01:07:41;2.70;81.30
3850;DHT22;1940;51.052;13.678;2023-03-15T01:10:10;2.80;81.30
3850;DHT22;1940;51.052;13.678;2023-03-15T01:12:36;2.80;80.80
3850;DHT22;1940;51.052;13.678;2023-03-15T01:15:03;2.90;80.50
3850;DHT22;1940;51.052;13.678;2023-03-15T01:17:29;2.90;80.40
3850;DHT22;1940;51.052;13.678;2023-03-15T01:19:55;2.90;80.30
3850;DHT22;1940;51.052;13.678;2023-03-15T01:22:20;2.90;80.20
3850;DHT22;1940;51.052;13.678;2023-03-15T01:24:46;2.90;80.20
3850;DHT22;1940;51.052;13.678;2023-03-15T01:27:12;2.90;80.50
3850;DHT22;1940;51.052;13.678;2023-03-15T01:29:37;2.90;80.60
3850;DHT22;1940;51.052;13.678;2023-03-15T01:32:03;2.90;80.50
3850;DHT22;1940;51.052;13.678;2023-03-15T01:34:28;2.90;80.60
3850;DHT22;1940;51.052;13.678;2023-03-15T01:36:54;2.90;80.80
3850;DHT22;1940;51.052;13.678;2023-03-15T01:39:20;2.90;80.30
3850;DHT22;1940;51.052;13.678;2023-03-15T01:41:45;3.00;80.20
3850;DHT22;1940;51.052;13.678;2023-03-15T01:44:15;3.00;80.20
3850;DHT22;1940;51.052;13.678;2023-03-15T01:46:41;3.00;80.20
3850;DHT22;1940;51.052;13.678;2023-03-15T01:49:14;3.00;80.20
3850;DHT22;1940;51.052;13.678;2023-03-15T01:51:57;2.90;80.30
3850;DHT22;1940;51.052;13.678;2023-03-15T01:54:35;2.90;80.50
3850;DHT22;1940;51.052;13.678;2023-03-15T01:57:05;2.90;80.70
3850;DHT22;1940;51.052;13.678;2023-03-15T01:59:37;2.90;80.70
3850;DHT22;1940;51.052;13.678;2023-03-15T02:02:04;2.90;80.60
3850;DHT22;1940;51.052;13.678;2023-03-15T02:04:35;2.90;80.70
3850;DHT22;1940;51.052;13.678;2023-03-15T02:07:03;2.90;80.90
3850;DHT22;1940;51.052;13.678;2023-03-15T02:09:52;2.80;81.00
3850;DHT22;1940;51.052;13.678;2023-03-15T02:12:19;2.80;81.30
3850;DHT22;1940;51.052;13.678;2023-03-15T02:14:45;2.80;81.40
3850;DHT22;1940;51.052;13.678;2023-03-15T02:17:11;2.70;81.60
3850;DHT22;1940;51.052;13.678;2023-03-15T02:22:57;2.70;82.10
3850;DHT22;1940;51.052;13.678;2023-03-15T02:26:01;2.60;82.20
3850;DHT22;1940;51.052;13.678;2023-03-15T02:28:30;2.60;82.30
3850;DHT22;1940;51.052;13.678;2023-03-15T02:30:56;2.60;82.30
3850;DHT22;1940;51.052;13.678;2023-03-15T02:33:29;2.50;82.70
3850;DHT22;1940;51.052;13.678;2023-03-15T02:36:07;2.50;82.90
3850;DHT22;1940;51.052;13.678;2023-03-15T02:38:32;2.50;82.90
3850;DHT22;1940;51.052;13.678;2023-03-15T02:40:58;2.60;83.00
3850;DHT22;1940;51.052;13.678;2023-03-15T02:43:26;2.60;83.00
3850;DHT22;1940;51.052;13.678;2023-03-15T02:45:54;2.60;82.90
3850;DHT22;1940;51.052;13.678;2023-03-15T02:48:20;2.60;82.80
3850;DHT22;1940;51.052;13.678;2023-03-15T02:50:45;2.70;82.70
3850;DHT22;1940;51.052;13.678;2023-03-15T02:53:11;2.60;82.70
3850;DHT22;1940;51.052;13.678;2023-03-15T02:55:37;2.60;82.80
3850;DHT22;1940;51.052;13.678;2023-03-15T02:58:02;2.60;83.10
3850;DHT22;1940;51.052;13.678;2023-03-15T03:00:28;2.60;83.30
3850;DHT22;1940;51.052;13.678;2023-03-15T03:02:54;2.60;83.10
3850;DHT22;1940;51.052;13.678;2023-03-15T03:05:20;2.50;83.20
3850;DHT22;1940;51.052;13.678;2023-03-15T03:07:45;2.60;83.20
3850;DHT22;1940;51.052;13.678;2023-03-15T03:10:13;2.60;83.10
3850;DHT22;1940;51.052;13.678;2023-03-15T03:12:39;2.60;83.00
3850;DHT22;1940;51.052;13.678;2023-03-15T03:15:05;2.50;82.90
3850;DHT22;1940;51.052;13.678;2023-03-15T03:17:31;2.50;83.10
3850;DHT22;1940;51.052;13.678;2023-03-15T03:20:10;2.50;83.60
3850;DHT22;1940;51.052;13.678;2023-03-15T03:22:38;2.50;83.50
3850;DHT22;1940;51.052;13.678;2023-03-15T03:25:05;2.40;83.60
3850;DHT22;1940;51.052;13.678;2023-03-15T03:27:31;2.40;83.70
3850;DHT22;1940;51.052;13.678;2023-03-15T03:30:02;2.50;83.60
3850;DHT22;1940;51.052;13.678;2023-03-15T03:32:28;2.40;83.50
3850;DHT22;1940;51.052;13.678;2023-03-15T03:34:53;2.40;83.30
3850;DHT22;1940;51.052;13.678;2023-03-15T03:37:20;2.40;83.10
3850;DHT22;1940;51.052;13.678;2023-03-15T03:39:46;2.40;83.10
3850;DHT22;1940;51.052;13.678;2023-03-15T03:42:11;2.40;83.20
3850;DHT22;1940;51.052;13.678;2023-03-15T03:44:37;2.40;83.10
3850;DHT22;1940;51.052;13.678;2023-03-15T03:47:03;2.40;83.10
3850;DHT22;1940;51.052;13.678;2023-03-15T03:49:28;2.40;83.20
3850;DHT22;1940;51.052;13.678;2023-03-15T03:51:54;2.30;83.00
3850;DHT22;1940;51.052;13.678;2023-03-15T03:54:19;2.20;83.10
3850;DHT22;1940;51.052;13.678;2023-03-15T03:56:46;2.20;83.10
3850;DHT22;1940;51.052;13.678;2023-03-15T03:59:11;2.20;83.00
3850;DHT22;1940;51.052;13.678;2023-03-15T04:01:37;2.30;83.00
3850;DHT22;1940;51.052;13.678;2023-03-15T04:04:02;2.30;82.60
3850;DHT22;1940;51.052;13.678;2023-03-15T04:06:28;2.20;82.70
3850;DHT22;1940;51.052;13.678;2023-03-15T04:08:53;2.30;82.50
3850;DHT22;1940;51.052;13.678;2023-03-15T04:11:19;2.30;82.40
3850;DHT22;1940;51.052;13.678;2023-03-15T04:13:44;2.30;82.50
3850;DHT22;1940;51.052;13.678;2023-03-15T04:16:10;2.20;82.40
3850;DHT22;1940;51.052;13.678;2023-03-15T04:18:35;2.20;82.60
3850;DHT22;1940;51.052;13.678;2023-03-15T04:21:01;2.10;82.60
3850;DHT22;1940;51.052;13.678;2023-03-15T04:23:26;2.10;82.70
3850;DHT22;1940;51.052;13.678;2023-03-15T04:25:52;2.10;82.60
3850;DHT22;1940;51.052;13.678;2023-03-15T04:28:22;2.10;82.70
3850;DHT22;1940;51.052;13.678;2023-03-15T04:30:48;2.10;82.50
3850;DHT22;1940;51.052;13.678;2023-03-15T04:33:14;2.10;82.40
3850;DHT22;1940;51.052;13.678;2023-03-15T04:35:40;2.10;82.10
3850;DHT22;1940;51.052;13.678;2023-03-15T04:38:07;2.10;82.10
3850;DHT22;1940;51.052;13.678;2023-03-15T04:40:33;2.00;82.00
3850;DHT22;1940;51.052;13.678;2023-03-15T04:43:03;2.10;82.20
3850;DHT22;1940;51.052;13.678;2023-03-15T04:45:30;2.10;82.20
3850;DHT22;1940;51.052;13.678;2023-03-15T04:47:56;2.10;82.20
3850;DHT22;1940;51.052;13.678;2023-03-15T04:50:22;2.00;82.50
3850;DHT22;1940;51.052;13.678;2023-03-15T04:52:48;1.90;82.70
3850;DHT22;1940;51.052;13.678;2023-03-15T04:55:14;2.00;82.40
3850;DHT22;1940;51.052;13.678;2023-03-15T04:57:40;2.00;82.40
3850;DHT22;1940;51.052;13.678;2023-03-15T05:00:07;2.10;82.20
3850;DHT22;1940;51.052;13.678;2023-03-15T05:02:34;2.10;82.30
3850;DHT22;1940;51.052;13.678;2023-03-15T05:05:00;2.00;82.30
3850;DHT22;1940;51.052;13.678;2023-03-15T05:07:25;2.00;82.30
3850;DHT22;1940;51.052;13.678;2023-03-15T05:09:51;2.00;82.50
3850;DHT22;1940;51.052;13.678;2023-03-15T05:12:17;2.00;82.50
3850;DHT22;1940;51.052;13.678;2023-03-15T05:14:43;2.00;82.40
3850;DHT22;1940;51.052;13.678;2023-03-15T05:17:08;2.00;82.40
3850;DHT22;1940;51.052;13.678;2023-03-15T05:19:34;2.10;82.10
3850;DHT22;1940;51.052;13.678;2023-03-15T05:22:00;2.10;82.00
3850;DHT22;1940;51.052;13.678;2023-03-15T05:24:26;2.10;81.60
3850;DHT22;1940;51.052;13.678;2023-03-15T05:26:52;2.10;81.70
3850;DHT22;1940;51.052;13.678;2023-03-15T05:29:19;2.00;81.90
3850;DHT22;1940;51.052;13.678;2023-03-15T05:31:46;2.10;81.60
3850;DHT22;1940;51.052;13.678;2023-03-15T05:34:11;2.10;81.60
3850;DHT22;1940;51.052;13.678;2023-03-15T05:36:37;2.10;81.50
3850;DHT22;1940;51.052;13.678;2023-03-15T05:39:02;2.10;81.40
3850;DHT22;1940;51.052;13.678;2023-03-15T05:41:28;2.10;81.30
3850;DHT22;1940;51.052;13.678;2023-03-15T05:43:54;2.20;81.20
3850;DHT22;1940;51.052;13.678;2023-03-15T05:46:19;2.30;81.10
3850;DHT22;1940;51.052;13.678;2023-03-15T05:48:47;2.30;80.90
3850;DHT22;1940;51.052;13.678;2023-03-15T05:51:12;2.50;80.80
3850;DHT22;1940;51.052;13.678;2023-03-15T05:53:38;2.70;80.10
3850;DHT22;1940;51.052;13.678;2023-03-15T05:56:04;3.00;79.50
3850;DHT22;1940;51.052;13.678;2023-03-15T05:58:29;3.20;78.70
3850;DHT22;1940;51.052;13.678;2023-03-15T06:00:55;3.30;78.20
3850;DHT22;1940;51.052;13.678;2023-03-15T06:03:20;3.30;77.50
3850;DHT22;1940;51.052;13.678;2023-03-15T06:05:46;3.20;78.00
3850;DHT22;1940;51.052;13.678;2023-03-15T06:08:12;3.20;77.80
3850;DHT22;1940;51.052;13.678;2023-03-15T06:10:37;3.30;77.90
3850;DHT22;1940;51.052;13.678;2023-03-15T06:13:03;3.30;77.60
3850;DHT22;1940;51.052;13.678;2023-03-15T06:15:28;3.30;78.00
3850;DHT22;1940;51.052;13.678;2023-03-15T06:17:54;3.20;77.90
3850;DHT22;1940;51.052;13.678;2023-03-15T06:20:19;3.30;78.00
3850;DHT22;1940;51.052;13.678;2023-03-15T06:22:45;3.30;77.70
3850;DHT22;1940;51.052;13.678;2023-03-15T06:25:10;3.30;77.70
3850;DHT22;1940;51.052;13.678;2023-03-15T06:27:36;3.40;77.70
3850;DHT22;1940;51.052;13.678;2023-03-15T06:30:03;3.50;77.70
3850;DHT22;1940;51.052;13.678;2023-03-15T06:32:29;3.50;77.50
3850;DHT22;1940;51.052;13.678;2023-03-15T06:34:54;3.50;77.50
3850;DHT22;1940;51.052;13.678;2023-03-15T06:37:20;3.50;77.30
3850;DHT22;1940;51.052;13.678;2023-03-15T06:39:46;3.60;77.50
3850;DHT22;1940;51.052;13.678;2023-03-15T06:42:11;3.60;77.70
3850;DHT22;1940;51.052;13.678;2023-03-15T06:44:39;3.70;77.30
3850;DHT22;1940;51.052;13.678;2023-03-15T06:47:05;3.80;77.40
3850;DHT22;1940;51.052;13.678;2023-03-15T06:49:30;3.90;76.80
3850;DHT22;1940;51.052;13.678;2023-03-15T06:51:56;3.90;76.20
3850;DHT22;1940;51.052;13.678;2023-03-15T06:54:23;4.10;75.60
3850;DHT22;1940;51.052;13.678;2023-03-15T06:56:48;4.30;75.30
3850;DHT22;1940;51.052;13.678;2023-03-15T06:59:14;4.30;74.40
3850;DHT22;1940;51.052;13.678;2023-03-15T07:01:39;4.40;74.60
3850;DHT22;1940;51.052;13.678;2023-03-15T07:04:05;4.40;74.40
3850;DHT22;1940;51.052;13.678;2023-03-15T07:06:31;4.50;73.90
3850;DHT22;1940;51.052;13.678;2023-03-15T07:08:57;4.70;73.40
3850;DHT22;1940;51.052;13.678;2023-03-15T07:11:23;4.90;72.40
3850;DHT22;1940;51.052;13.678;2023-03-15T07:13:48;5.30;72.10
3850;DHT22;1940;51.052;13.678;2023-03-15T07:16:14;5.80;70.80
3850;DHT22;1940;51.052;13.678;2023-03-15T07:18:39;6.20;69.20
3850;DHT22;1940;51.052;13.678;2023-03-15T07:21:05;6.30;69.00
3850;DHT22;1940;51.052;13.678;2023-03-15T07:23:32;6.30;69.10
3850;DHT22;1940;51.052;13.678;2023-03-15T07:25:58;6.70;68.80
3850;DHT22;1940;51.052;13.678;2023-03-15T07:28:24;7.30;67.20
3850;DHT22;1940;51.052;13.678;2023-03-15T07:31:01;8.20;65.30
3850;DHT22;1940;51.052;13.678;2023-03-15T07:33:28;8.50;63.70
3850;DHT22;1940;51.052;13.678;2023-03-15T07:35:54;9.60;61.20
3850;DHT22;1940;51.052;13.678;2023-03-15T07:38:25;9.70;60.00
3850;DHT22;1940;51.052;13.678;2023-03-15T07:40:51;9.20;60.40
3850;DHT22;1940;51.052;13.678;2023-03-15T07:43:17;9.00;61.20
3850;DHT22;1940;51.052;13.678;2023-03-15T07:45:43;9.60;60.80
3850;DHT22;1940;51.052;13.678;2023-03-15T07:48:08;10.60;59.00
3850;DHT22;1940;51.052;13.678;2023-03-15T07:50:34;10.80;58.10
3850;DHT22;1940;51.052;13.678;2023-03-15T07:52:59;10.70;56.90
3850;DHT22;1940;51.052;13.678;2023-03-15T07:55:25;10.00;58.80
3850;DHT22;1940;51.052;13.678;2023-03-15T07:57:51;10.50;58.80
3850;DHT22;1940;51.052;13.678;2023-03-15T08:00:17;11.10;57.00
3850;DHT22;1940;51.052;13.678;2023-03-15T08:02:43;12.20;55.10
3850;DHT22;1940;51.052;13.678;2023-03-15T08:05:09;12.40;54.70
3850;DHT22;1940;51.052;13.678;2023-03-15T08:07:35;12.50;54.10
3850;DHT22;1940;51.052;13.678;2023-03-15T08:10:02;12.30;53.90
3850;DHT22;1940;51.052;13.678;2023-03-15T08:12:27;11.40;55.60
3850;DHT22;1940;51.052;13.678;2023-03-15T08:14:54;11.10;55.80
3850;DHT22;1940;51.052;13.678;2023-03-15T08:17:19;11.30;55.60
3850;DHT22;1940;51.052;13.678;2023-03-15T08:19:45;10.90;55.90
3850;DHT22;1940;51.052;13.678;2023-03-15T08:22:10;10.20;57.40
3850;DHT22;1940;51.052;13.678;2023-03-15T08:24:36;9.30;58.90
3850;DHT22;1940;51.052;13.678;2023-03-15T08:27:02;8.60;60.00
3850;DHT22;1940;51.052;13.678;2023-03-15T08:29:29;8.50;60.50
3850;DHT22;1940;51.052;13.678;2023-03-15T08:31:55;8.10;61.70
3850;DHT22;1940;51.052;13.678;2023-03-15T08:34:21;8.10;62.10
3850;DHT22;1940;51.052;13.678;2023-03-15T08:36:47;8.00;62.40
3850;DHT22;1940;51.052;13.678;2023-03-15T08:39:12;7.70;62.60
3850;DHT22;1940;51.052;13.678;2023-03-15T08:41:38;7.40;64.50
3850;DHT22;1940;51.052;13.678;2023-03-15T08:44:05;7.10;65.90
3850;DHT22;1940;51.052;13.678;2023-03-15T08:46:30;6.50;67.60
3850;DHT22;1940;51.052;13.678;2023-03-15T08:48:57;5.90;71.20
3850;DHT22;1940;51.052;13.678;2023-03-15T08:51:23;5.50;74.00
3850;DHT22;1940;51.052;13.678;2023-03-15T08:53:49;5.00;76.90
3850;DHT22;1940;51.052;13.678;2023-03-15T08:56:16;5.00;79.30
3850;DHT22;1940;51.052;13.678;2023-03-15T08:58:41;4.80;80.80
3850;DHT22;1940;51.052;13.678;2023-03-15T09:01:10;4.60;82.10
3850;DHT22;1940;51.052;13.678;2023-03-15T09:03:36;4.40;83.10
3850;DHT22;1940;51.052;13.678;2023-03-15T09:06:01;4.10;84.20
3850;DHT22;1940;51.052;13.678;2023-03-15T09:08:27;3.90;85.70
3850;DHT22;1940;51.052;13.678;2023-03-15T09:10:56;3.90;86.30
3850;DHT22;1940;51.052;13.678;2023-03-15T09:13:22;4.00;87.10
3850;DHT22;1940;51.052;13.678;2023-03-15T09:15:51;4.20;87.00
3850;DHT22;1940;51.052;13.678;2023-03-15T09:18:17;4.40;86.60
3850;DHT22;1940;51.052;13.678;2023-03-15T09:20:43;4.60;87.30
3850;DHT22;1940;51.052;13.678;2023-03-15T09:23:09;5.20;85.90
3850;DHT22;1940;51.052;13.678;2023-03-15T09:25:34;5.80;84.40
3850;DHT22;1940;51.052;13.678;2023-03-15T09:28:07;6.30;82.90
3850;DHT22;1940;51.052;13.678;2023-03-15T09:30:35;7.20;79.80
3850;DHT22;1940;51.052;13.678;2023-03-15T09:33:01;8.10;76.10
3850;DHT22;1940;51.052;13.678;2023-03-15T09:35:26;8.10;71.50
3850;DHT22;1940;51.052;13.678;2023-03-15T09:37:52;7.90;71.70
3850;DHT22;1940;51.052;13.678;2023-03-15T09:40:19;7.50;71.80
3850;DHT22;1940;51.052;13.678;2023-03-15T09:43:00;7.20;72.80
3850;DHT22;1940;51.052;13.678;2023-03-15T09:45:41;6.80;72.80
3850;DHT22;1940;51.052;13.678;2023-03-15T09:50:49;6.40;73.70
3850;DHT22;1940;51.052;13.678;2023-03-15T09:55:57;6.10;75.50
3850;DHT22;1940;51.052;13.678;2023-03-15T09:58:28;6.10;74.00
3850;DHT22;1940;51.052;13.678;2023-03-15T10:01:05;6.00;74.90
3850;DHT22;1940;51.052;13.678;2023-03-15T10:03:47;6.00;74.70
3850;DHT22;1940;51.052;13.678;2023-03-15T10:06:28;6.10;75.60
3850;DHT22;1940;51.052;13.678;2023-03-15T10:08:56;6.10;75.30
3850;DHT22;1940;51.052;13.678;2023-03-15T10:11:33;6.00;74.40
3850;DHT22;1940;51.052;13.678;2023-03-15T10:14:20;5.80;75.20
3850;DHT22;1940;51.052;13.678;2023-03-15T10:16:50;5.70;75.60
3850;DHT22;1940;51.052;13.678;2023-03-15T10:22:01;5.60;75.60
3850;DHT22;1940;51.052;13.678;2023-03-15T10:25:00;5.60;76.20
3850;DHT22;1940;51.052;13.678;2023-03-15T10:27:43;5.50;76.80
3850;DHT22;1940;51.052;13.678;2023-03-15T10:30:27;5.30;77.80
3850;DHT22;1940;51.052;13.678;2023-03-15T10:33:45;5.30;77.00
3850;DHT22;1940;51.052;13.678;2023-03-15T10:35:46;5.20;77.70
3850;DHT22;1940;51.052;13.678;2023-03-15T10:38:20;5.10;78.20
3850;DHT22;1940;51.052;13.678;2023-03-15T10:40:50;5.10;78.40
3850;DHT22;1940;51.052;13.678;2023-03-15T10:43:30;5.20;77.80
3850;DHT22;1940;51.052;13.678;2023-03-15T10:46:04;5.30;78.10
3850;DHT22;1940;51.052;13.678;2023-03-15T10:48:38;5.50;77.50
3850;DHT22;1940;51.052;13.678;2023-03-15T10:51:18;5.60;77.60
3850;DHT22;1940;51.052;13.678;2023-03-15T10:53:53;5.90;76.90
3850;DHT22;1940;51.052;13.678;2023-03-15T10:56:26;6.00;76.90
3850;DHT22;1940;51.052;13.678;2023-03-15T10:58:54;6.30;75.20
3850;DHT22;1940;51.052;13.678;2023-03-15T11:01:28;6.30;75.30
3850;DHT22;1940;51.052;13.678;2023-03-15T11:04:16;6.50;74.30
3850;DHT22;1940;51.052;13.678;2023-03-15T11:09:22;7.30;70.80
3850;DHT22;1940;51.052;13.678;2023-03-15T11:11:56;7.20;70.80
3850;DHT22;1940;51.052;13.678;2023-03-15T11:14:22;7.30;71.40
3850;DHT22;1940;51.052;13.678;2023-03-15T11:16:51;6.80;71.50
3850;DHT22;1940;51.052;13.678;2023-03-15T11:19:19;6.80;71.70
3850;DHT22;1940;51.052;13.678;2023-03-15T11:21:48;6.60;72.90
3850;DHT22;1940;51.052;13.678;2023-03-15T11:24:29;6.50;73.50
3850;DHT22;1940;51.052;13.678;2023-03-15T11:26:59;6.40;73.80
3850;DHT22;1940;51.052;13.678;2023-03-15T11:29:31;6.20;73.70
3850;DHT22;1940;51.052;13.678;2023-03-15T11:32:06;6.10;73.10
3850;DHT22;1940;51.052;13.678;2023-03-15T11:34:46;6.20;73.60
3850;DHT22;1940;51.052;13.678;2023-03-15T11:37:20;6.10;74.30
3850;DHT22;1940;51.052;13.678;2023-03-15T11:42:40;6.00;74.60
3850;DHT22;1940;51.052;13.678;2023-03-15T11:45:22;6.00;73.70
3850;DHT22;1940;51.052;13.678;2023-03-15T11:47:56;6.00;73.70
3850;DHT22;1940;51.052;13.678;2023-03-15T11:50:23;6.10;73.00
3850;DHT22;1940;51.052;13.678;2023-03-15T11:52:50;6.10;74.10
3850;DHT22;1940;51.052;13.678;2023-03-15T11:55:19;6.20;73.90
3850;DHT22;1940;51.052;13.678;2023-03-15T11:57:48;6.20;74.20
3850;DHT22;1940;51.052;13.678;2023-03-15T12:00:20;6.20;74.10
3850;DHT22;1940;51.052;13.678;2023-03-15T12:02:54;6.30;74.00
3850;DHT22;1940;51.052;13.678;2023-03-15T12:05:40;6.50;73.60
3850;DHT22;1940;51.052;13.678;2023-03-15T12:11:11;6.60;71.00
3850;DHT22;1940;51.052;13.678;2023-03-15T12:13:37;6.70;70.80
3850;DHT22;1940;51.052;13.678;2023-03-15T12:16:14;6.90;69.50
3850;DHT22;1940;51.052;13.678;2023-03-15T12:18:44;6.80;69.50
3850;DHT22;1940;51.052;13.678;2023-03-15T12:21:20;6.50;70.40
3850;DHT22;1940;51.052;13.678;2023-03-15T12:23:55;6.30;72.20
3850;DHT22;1940;51.052;13.678;2023-03-15T12:26:24;6.30;72.50
3850;DHT22;1940;51.052;13.678;2023-03-15T12:31:26;6.70;72.90
3850;DHT22;1940;51.052;13.678;2023-03-15T12:34:13;6.70;73.20
3850;DHT22;1940;51.052;13.678;2023-03-15T12:36:41;7.00;71.90
3850;DHT22;1940;51.052;13.678;2023-03-15T12:41:41;7.10;71.00
3850;DHT22;1940;51.052;13.678;2023-03-15T12:44:23;7.00;71.20
3850;DHT22;1940;51.052;13.678;2023-03-15T12:51:58;7.20;70.60
3850;DHT22;1940;51.052;13.678;2023-03-15T12:57:00;6.80;71.30
3850;DHT22;1940;51.052;13.678;2023-03-15T12:59:59;6.80;71.30
3850;DHT22;1940;51.052;13.678;2023-03-15T13:02:48;6.80;71.40
3850;DHT22;1940;51.052;13.678;2023-03-15T13:05:21;6.80;71.00
3850;DHT22;1940;51.052;13.678;2023-03-15T13:07:55;6.70;70.90
3850;DHT22;1940;51.052;13.678;2023-03-15T13:16:14;6.90;70.40
3850;DHT22;1940;51.052;13.678;2023-03-15T13:18:50;7.00;69.20
3850;DHT22;1940;51.052;13.678;2023-03-15T13:21:24;6.90;69.70
3850;DHT22;1940;51.052;13.678;2023-03-15T13:23:51;7.00;68.90
3850;DHT22;1940;51.052;13.678;2023-03-15T13:29:08;7.00;69.60
3850;DHT22;1940;51.052;13.678;2023-03-15T13:31:36;7.20;70.70
3850;DHT22;1940;51.052;13.678;2023-03-15T13:34:21;7.40;70.20
3850;DHT22;1940;51.052;13.678;2023-03-15T13:36:53;7.40;70.20
3850;DHT22;1940;51.052;13.678;2023-03-15T13:40:07;7.40;68.30
3850;DHT22;1940;51.052;13.678;2023-03-15T13:42:17;7.60;68.20
3850;DHT22;1940;51.052;13.678;2023-03-15T13:44:43;7.40;68.00
3850;DHT22;1940;51.052;13.678;2023-03-15T13:47:19;7.40;68.50
3850;DHT22;1940;51.052;13.678;2023-03-15T13:49:51;7.70;68.30
3850;DHT22;1940;51.052;13.678;2023-03-15T13:52:17;7.60;68.00
3850;DHT22;1940;51.052;13.678;2023-03-15T13:54:42;7.80;67.30
3850;DHT22;1940;51.052;13.678;2023-03-15T13:57:15;7.70;67.80
3850;DHT22;1940;51.052;13.678;2023-03-15T13:59:57;7.80;68.20
3850;DHT22;1940;51.052;13.678;2023-03-15T14:02:51;7.70;68.70
3850;DHT22;1940;51.052;13.678;2023-03-15T14:05:24;7.70;68.40
3850;DHT22;1940;51.052;13.678;2023-03-15T14:08:03;7.70;69.10
3850;DHT22;1940;51.052;13.678;2023-03-15T14:10:34;7.60;70.10
3850;DHT22;1940;51.052;13.678;2023-03-15T14:15:47;7.00;68.20
3850;DHT22;1940;51.052;13.678;2023-03-15T14:18:16;7.00;69.20
3850;DHT22;1940;51.052;13.678;2023-03-15T14:20:51;6.70;69.30
3850;DHT22;1940;51.052;13.678;2023-03-15T14:23:21;6.40;70.30
3850;DHT22;1940;51.052;13.678;2023-03-15T14:25:59;6.50;70.50
3850;DHT22;1940;51.052;13.678;2023-03-15T14:28:26;6.40;70.30
3850;DHT22;1940;51.052;13.678;2023-03-15T14:30:54;6.40;70.60
3850;DHT22;1940;51.052;13.678;2023-03-15T14:33:27;6.50;71.00
3850;DHT22;1940;51.052;13.678;2023-03-15T14:35:58;6.80;70.50
3850;DHT22;1940;51.052;13.678;2023-03-15T14:38:29;6.90;69.30
3850;DHT22;1940;51.052;13.678;2023-03-15T14:41:09;6.90;68.90
3850;DHT22;1940;51.052;13.678;2023-03-15T14:43:35;7.00;68.10
3850;DHT22;1940;51.052;13.678;2023-03-15T14:46:01;6.90;67.60
3850;DHT22;1940;51.052;13.678;2023-03-15T14:48:28;6.90;67.60
3850;DHT22;1940;51.052;13.678;2023-03-15T14:50:56;7.10;67.40
3850;DHT22;1940;51.052;13.678;2023-03-15T14:53:24;7.10;65.80
3850;DHT22;1940;51.052;13.678;2023-03-15T14:55:50;7.10;65.10
3850;DHT22;1940;51.052;13.678;2023-03-15T14:58:18;7.00;65.40
3850;DHT22;1940;51.052;13.678;2023-03-15T15:00:49;6.80;66.30
3850;DHT22;1940;51.052;13.678;2023-03-15T15:03:19;6.90;66.00
3850;DHT22;1940;51.052;13.678;2023-03-15T15:05:47;6.80;66.60
3850;DHT22;1940;51.052;13.678;2023-03-15T15:08:15;6.80;66.30
3850;DHT22;1940;51.052;13.678;2023-03-15T15:10:45;6.90;66.60
3850;DHT22;1940;51.052;13.678;2023-03-15T15:13:21;6.80;66.60
3850;DHT22;1940;51.052;13.678;2023-03-15T15:15:48;6.80;66.90
3850;DHT22;1940;51.052;13.678;2023-03-15T15:18:14;6.80;67.00
3850;DHT22;1940;51.052;13.678;2023-03-15T15:20:41;6.80;67.10
3850;DHT22;1940;51.052;13.678;2023-03-15T15:23:34;6.90;67.30
3850;DHT22;1940;51.052;13.678;2023-03-15T15:26:03;6.80;67.30
3850;DHT22;1940;51.052;13.678;2023-03-15T15:28:29;6.60;68.00
3850;DHT22;1940;51.052;13.678;2023-03-15T15:30:55;6.60;68.00
3850;DHT22;1940;51.052;13.678;2023-03-15T15:33:21;6.60;66.80
3850;DHT22;1940;51.052;13.678;2023-03-15T15:35:51;6.60;66.70
3850;DHT22;1940;51.052;13.678;2023-03-15T15:38:17;6.50;66.40
3850;DHT22;1940;51.052;13.678;2023-03-15T15:40:43;6.40;65.20
3850;DHT22;1940;51.052;13.678;2023-03-15T15:43:10;6.30;64.90
3850;DHT22;1940;51.052;13.678;2023-03-15T15:45:36;6.20;65.10
3850;DHT22;1940;51.052;13.678;2023-03-15T15:48:02;6.10;65.20
3850;DHT22;1940;51.052;13.678;2023-03-15T15:50:34;6.20;65.60
3850;DHT22;1940;51.052;13.678;2023-03-15T15:53:03;6.20;64.90
3850;DHT22;1940;51.052;13.678;2023-03-15T15:55:32;6.30;64.90
3850;DHT22;1940;51.052;13.678;2023-03-15T15:57:58;6.30;64.90
3850;DHT22;1940;51.052;13.678;2023-03-15T16:00:25;6.20;65.60
3850;DHT22;1940;51.052;13.678;2023-03-15T16:02:54;6.20;66.10
3850;DHT22;1940;51.052;13.678;2023-03-15T16:05:24;6.20;67.30
3850;DHT22;1940;51.052;13.678;2023-03-15T16:07:52;6.30;68.00
3850;DHT22;1940;51.052;13.678;2023-03-15T16:10:22;6.20;68.20
3850;DHT22;1940;51.052;13.678;2023-03-15T16:12:49;5.90;68.80
3850;DHT22;1940;51.052;13.678;2023-03-15T16:15:16;5.90;69.80
3850;DHT22;1940;51.052;13.678;2023-03-15T16:17:43;5.80;70.20
3850;DHT22;1940;51.052;13.678;2023-03-15T16:20:09;5.70;70.20
3850;DHT22;1940;51.052;13.678;2023-03-15T16:22:45;5.70;70.10
3850;DHT22;1940;51.052;13.678;2023-03-15T16:25:19;5.70;70.30
3850;DHT22;1940;51.052;13.678;2023-03-15T16:27:50;5.70;70.40
3850;DHT22;1940;51.052;13.678;2023-03-15T16:30:21;5.70;70.10
3850;DHT22;1940;51.052;13.678;2023-03-15T16:32:47;5.80;70.00
3850;DHT22;1940;51.052;13.678;2023-03-15T16:35:12;5.70;70.40
3850;DHT22;1940;51.052;13.678;2023-03-15T16:37:40;5.80;70.40
3850;DHT22;1940;51.052;13.678;2023-03-15T16:40:33;5.70;70.10
3850;DHT22;1940;51.052;13.678;2023-03-15T16:42:58;5.60;69.70
3850;DHT22;1940;51.052;13.678;2023-03-15T16:45:25;5.50;69.50
3850;DHT22;1940;51.052;13.678;2023-03-15T16:47:52;5.50;69.90
3850;DHT22;1940;51.052;13.678;2023-03-15T16:50:17;5.40;70.20
3850;DHT22;1940;51.052;13.678;2023-03-15T16:52:44;5.30;70.10
3850;DHT22;1940;51.052;13.678;2023-03-15T16:55:21;5.30;70.80
3850;DHT22;1940;51.052;13.678;2023-03-15T16:57:47;5.20;70.90